createdAt,value
2023-05-24T00:02:18.339Z,11.56
2023-05-24T00:07:22.376Z,11.33
2023-05-24T00:12:25.711Z,11.63
2023-05-24T00:17:30.313Z,11.54
2023-05-24T00:22:36.174Z,11.53
2023-05-24T00:27:38.929Z,11.48
2023-05-24T00:32:41.572Z,11.53
2023-05-24T00:37:46.401Z,11.31
2023-05-24T00:42:51.874Z,11.31
2023-05-24T00:47:54.913Z,10.99
2023-05-24T00:53:03.198Z,11.09
2023-05-24T00:58:05.873Z,11.02
2023-05-24T01:03:08.634Z,11.06
2023-05-24T01:08:23.077Z,10.39
2023-05-24T01:13:32.353Z,11.03
2023-05-24T01:18:42.301Z,11.18
2023-05-24T01:23:58.483Z,10.52
2023-05-24T01:29:03.499Z,11.02
2023-05-24T01:34:07.185Z,9.92
2023-05-24T01:39:11.220Z,10.67
2023-05-24T01:44:27.736Z,10.92
2023-05-24T01:49:35.564Z,10.78
2023-05-24T01:54:45.927Z,10.82
2023-05-24T01:59:51.408Z,10.41
2023-05-24T02:04:54.681Z,10.74
2023-05-24T02:09:58.517Z,10.41
2023-05-24T02:15:03.436Z,10.36
2023-05-24T02:20:07.481Z,10.35
2023-05-24T02:25:10.659Z,10.43
2023-05-24T02:30:17.606Z,10.41
2023-05-24T02:35:21.373Z,9.79
2023-05-24T02:40:24.606Z,10.15
2023-05-24T02:45:28.714Z,10.17
2023-05-24T02:50:31.361Z,10.17
2023-05-24T02:55:34.119Z,10.04
2023-05-24T03:00:38.322Z,10.05
2023-05-24T03:05:41.614Z,9.92
2023-05-24T03:10:46.901Z,10.22
2023-05-24T03:15:51.873Z,9.91
2023-05-24T03:20:54.574Z,10.20
2023-05-24T03:25:57.272Z,9.65
2023-05-24T03:31:01.950Z,9.96
2023-05-24T03:36:05.282Z,10.21
2023-05-24T03:41:08.031Z,10.19
2023-05-24T03:46:12.305Z,9.64
2023-05-24T03:51:17.718Z,9.84
2023-05-24T03:56:20.558Z,10.14
2023-05-24T04:01:33.348Z,9.85
2023-05-24T04:06:38.057Z,9.99
2023-05-24T04:11:40.928Z,9.78
2023-05-24T04:16:45.179Z,10.21
2023-05-24T04:21:47.998Z,10.26
2023-05-24T04:26:51.648Z,10.31
2023-05-24T04:31:56.231Z,10.43
2023-05-24T04:37:01.176Z,10.27
2023-05-24T04:42:05.901Z,10.24
2023-05-24T04:47:10.681Z,10.52
2023-05-24T04:52:13.496Z,10.54
2023-05-24T04:57:16.902Z,10.71
2023-05-24T05:02:22.255Z,10.61
2023-05-24T05:07:26.330Z,10.66
2023-05-24T05:12:28.993Z,11.17
2023-05-24T05:17:33.266Z,11.28
2023-05-24T05:22:36.371Z,11.25
2023-05-24T05:27:41.230Z,11.41
2023-05-24T05:32:45.366Z,11.45
2023-05-24T05:37:48.099Z,11.72
2023-05-24T05:42:54.045Z,11.65
2023-05-24T05:48:01.869Z,11.93
2023-05-24T05:53:04.559Z,12.07
2023-05-24T05:58:07.231Z,11.80
2023-05-24T06:03:14.423Z,11.81
2023-05-24T06:08:19.497Z,11.87
2023-05-24T06:13:22.216Z,12.18
2023-05-24T06:18:27.488Z,11.71
2023-05-24T06:23:33.120Z,12.71
2023-05-24T06:28:36.782Z,12.91
2023-05-24T06:33:42.697Z,12.96
2023-05-24T06:38:49.595Z,12.92
2023-05-24T06:43:52.496Z,13.01
2023-05-24T06:48:56.628Z,13.11
2023-05-24T06:53:59.779Z,13.12
2023-05-24T06:59:11.365Z,12.99
2023-05-24T07:04:16.547Z,12.87
2023-05-24T07:09:19.522Z,13.04
2023-05-24T07:14:25.811Z,13.40
2023-05-24T07:19:30.457Z,13.58
2023-05-24T07:24:33.174Z,13.97
2023-05-24T07:29:36.051Z,13.56
2023-05-24T07:34:41.398Z,13.67
2023-05-24T07:39:45.749Z,13.92
2023-05-24T07:44:49.467Z,13.82
2023-05-24T07:49:53.840Z,14.14
2023-05-24T07:54:57.243Z,13.84
2023-05-24T08:00:10.339Z,14.05
2023-05-24T08:05:18.352Z,13.85
2023-05-24T08:10:21.934Z,13.81
2023-05-24T08:15:26.947Z,13.85
2023-05-24T08:20:31.321Z,14.50
2023-05-24T08:25:42.122Z,14.79
2023-05-24T08:30:47.621Z,14.72
2023-05-24T08:35:52.625Z,14.75
2023-05-24T08:40:56.108Z,14.75
2023-05-24T08:46:00.270Z,15.00
2023-05-24T08:51:05.168Z,14.93
2023-05-24T08:56:10.459Z,15.02
2023-05-24T09:01:14.913Z,15.04
2023-05-24T09:06:20.413Z,14.76
2023-05-24T09:11:26.052Z,14.79
2023-05-24T09:16:29.360Z,15.27
2023-05-24T09:21:35.574Z,14.01
2023-05-24T09:26:38.649Z,15.31
2023-05-24T09:31:41.802Z,14.94
2023-05-24T09:36:48.502Z,15.30
2023-05-24T09:41:57.290Z,15.30
2023-05-24T09:47:05.305Z,15.80
2023-05-24T09:52:09.773Z,15.58
2023-05-24T09:57:17.212Z,15.84
2023-05-24T10:02:23.128Z,15.80
2023-05-24T10:07:28.199Z,15.86
2023-05-24T10:12:35.580Z,15.97
2023-05-24T10:17:38.566Z,15.85
2023-05-24T10:22:46.366Z,15.68
2023-05-24T10:27:51.399Z,15.37
2023-05-24T10:32:56.937Z,15.68
2023-05-24T10:38:10.218Z,15.81
2023-05-24T10:43:13.587Z,16.09
2023-05-24T10:48:39.190Z,16.29
2023-05-24T10:53:43.544Z,16.31
2023-05-24T10:58:58.906Z,16.38
2023-05-24T11:04:08.636Z,16.11
2023-05-24T11:09:12.845Z,16.07
2023-05-24T11:14:19.662Z,16.15
2023-05-24T11:19:26.046Z,16.00
2023-05-24T11:24:31.222Z,15.91
2023-05-24T11:29:41.009Z,15.86
2023-05-24T11:34:46.276Z,15.48
2023-05-24T11:39:53.359Z,16.01
2023-05-24T11:44:56.620Z,15.77
2023-05-24T11:49:59.451Z,15.56
2023-05-24T11:55:03.526Z,15.38
2023-05-24T12:00:11.223Z,15.76
2023-05-24T12:05:15.818Z,15.65
2023-05-24T12:10:22.924Z,15.82
2023-05-24T12:15:25.770Z,15.75
2023-05-24T12:20:29.174Z,15.87
2023-05-24T12:25:33.326Z,15.85
2023-05-24T12:30:43.212Z,16.28
2023-05-24T12:35:50.618Z,16.66
2023-05-24T12:41:11.374Z,17.03
2023-05-24T12:46:17.259Z,17.27
2023-05-24T12:51:20.086Z,17.36
2023-05-24T12:56:27.273Z,17.71
2023-05-24T13:01:31.332Z,17.77
2023-05-24T13:06:34.597Z,18.33
2023-05-24T13:11:39.220Z,18.47
2023-05-24T13:16:42.549Z,18.70
2023-05-24T13:21:51.017Z,18.79
2023-05-24T13:26:55.305Z,18.82
2023-05-24T13:32:02.917Z,18.47
2023-05-24T13:37:08.665Z,19.01
2023-05-24T13:42:13.156Z,19.55
2023-05-24T13:47:31.159Z,19.44
2023-05-24T13:52:50.895Z,19.60
2023-05-24T13:57:56.899Z,19.20
2023-05-24T14:02:59.978Z,18.94
2023-05-24T14:08:09.434Z,18.73
2023-05-24T14:13:36.823Z,18.62
2023-05-24T14:18:37.214Z,18.72
2023-05-24T14:23:39.943Z,18.74
2023-05-24T14:28:43.958Z,18.48
2023-05-24T14:33:50.998Z,18.29
2023-05-24T14:38:55.335Z,18.29
2023-05-24T14:44:02.224Z,17.74
2023-05-24T14:49:10.273Z,18.17
2023-05-24T14:54:14.074Z,18.22
2023-05-24T14:59:19.067Z,18.34
2023-05-24T15:04:22.722Z,18.40
2023-05-24T15:09:25.918Z,18.38
2023-05-24T15:14:32.846Z,18.27
2023-05-24T15:19:47.874Z,16.15
2023-05-24T15:24:51.336Z,18.08
2023-05-24T15:29:59.337Z,17.90
2023-05-24T15:35:03.834Z,17.81
2023-05-24T15:40:09.935Z,17.66
2023-05-24T15:45:14.493Z,17.50
2023-05-24T15:50:23.621Z,17.60
2023-05-24T15:55:33.895Z,17.76
2023-05-24T16:00:39.132Z,17.72
2023-05-24T16:05:42.874Z,17.97
2023-05-24T16:10:47.029Z,17.99
2023-05-24T16:15:52.282Z,18.06
2023-05-24T16:20:54.930Z,18.00
2023-05-24T16:25:57.637Z,18.08
2023-05-24T16:31:03.103Z,17.56
2023-05-24T16:36:06.536Z,17.93
2023-05-24T16:41:09.305Z,17.83
2023-05-24T16:46:14.281Z,17.34
2023-05-24T16:51:17.682Z,17.54
2023-05-24T16:56:20.896Z,17.51
2023-05-24T17:01:25.815Z,17.14
2023-05-24T17:06:29.334Z,17.47
2023-05-24T17:11:32.254Z,17.46
2023-05-24T17:16:36.575Z,17.31
2023-05-24T17:21:39.483Z,17.09
2023-05-24T17:26:43.340Z,17.01
2023-05-24T17:31:48.817Z,16.69
2023-05-24T17:36:53.904Z,16.95
2023-05-24T17:42:11.736Z,15.51
2023-05-24T17:47:19.662Z,16.77
2023-05-24T17:52:24.863Z,15.60
2023-05-24T17:58:37.538Z,15.74
2023-05-24T18:03:44.861Z,16.30
2023-05-24T18:08:47.473Z,16.67
2023-05-24T18:13:50.103Z,16.67
2023-05-24T18:19:52.169Z,16.65
2023-05-24T18:24:57.067Z,16.56
2023-05-24T18:30:01.640Z,16.25
2023-05-24T18:35:05.589Z,16.27
2023-05-24T18:40:11.181Z,16.29
2023-05-24T18:45:16.228Z,16.10
2023-05-24T18:50:23.315Z,16.05
2023-05-24T18:55:27.734Z,15.91
2023-05-24T19:00:32.981Z,15.79
2023-05-24T19:05:35.734Z,15.96
2023-05-24T19:10:39.837Z,15.77
2023-05-24T19:15:42.845Z,15.45
2023-05-24T19:20:50.875Z,15.69
2023-05-24T19:25:57.189Z,15.16
2023-05-24T19:31:02.764Z,15.38
2023-05-24T19:36:10.709Z,15.47
2023-05-24T19:41:14.920Z,15.29
2023-05-24T19:46:17.844Z,14.78
2023-05-24T19:51:20.841Z,15.01
2023-05-24T19:56:26.667Z,14.87
2023-05-24T20:01:30.082Z,14.88
2023-05-24T20:06:37.262Z,14.90
2023-05-24T20:11:41.456Z,14.63
2023-05-24T20:16:44.327Z,14.40
2023-05-24T20:21:47.098Z,14.75
2023-05-24T20:26:52.323Z,14.85
2023-05-24T20:31:55.240Z,14.82
2023-05-24T20:36:57.955Z,14.81
2023-05-24T20:42:02.261Z,14.82
2023-05-24T20:47:06.660Z,14.73
2023-05-24T20:52:09.460Z,14.34
2023-05-24T20:57:15.926Z,14.00
2023-05-24T21:02:18.750Z,14.36
2023-05-24T21:07:21.546Z,14.40
2023-05-24T21:12:25.784Z,13.99
2023-05-24T21:17:28.547Z,14.18
2023-05-24T21:22:31.358Z,14.17
2023-05-24T21:27:35.539Z,14.07
2023-05-24T21:32:38.372Z,14.01
2023-05-24T21:37:41.153Z,13.99
2023-05-24T21:42:45.540Z,13.62
2023-05-24T21:47:48.224Z,13.96
2023-05-24T21:52:51.625Z,13.67
2023-05-24T21:57:59.711Z,13.49
2023-05-24T22:03:02.834Z,13.14
2023-05-24T22:08:05.692Z,12.81
2023-05-24T22:13:09.822Z,13.56
2023-05-24T22:18:17.410Z,12.59
2023-05-24T22:23:20.311Z,13.77
2023-05-24T22:28:33.603Z,13.46
2023-05-24T22:33:36.259Z,12.70
2023-05-24T22:38:39.042Z,13.39
2023-05-24T22:43:43.591Z,13.07
2023-05-24T22:48:46.651Z,12.93
2023-05-24T22:53:52.326Z,12.19
2023-05-24T22:58:56.560Z,13.21
2023-05-24T23:04:11.619Z,13.16
2023-05-24T23:09:30.207Z,13.18
2023-05-24T23:14:38.133Z,12.28
2023-05-24T23:19:42.349Z,13.07
2023-05-24T23:24:47.057Z,12.98
2023-05-24T23:29:51.134Z,13.07
2023-05-24T23:34:53.775Z,12.94
2023-05-24T23:40:02.106Z,12.93
2023-05-24T23:45:07.489Z,12.73
2023-05-24T23:50:11.109Z,12.94
2023-05-24T23:55:14.627Z,12.79
